createdAt,value
2022-11-24T00:01:23.456Z,99903.47
2022-11-24T00:03:57.510Z,99911.16
2022-11-24T00:06:26.810Z,99910.19
2022-11-24T00:08:56.263Z,99904.88
2022-11-24T00:11:27.648Z,99909.22
2022-11-24T00:13:56.895Z,99918.81
2022-11-24T00:16:27.397Z,99923.19
2022-11-24T00:18:59.181Z,99924.13
2022-11-24T00:21:29.500Z,99927.72
2022-11-24T00:23:58.506Z,99924.31
2022-11-24T00:26:29.351Z,99928.72
2022-11-24T00:29:00.063Z,99921.00
2022-11-24T00:31:31.136Z,99929.72
2022-11-24T00:34:03.632Z,99938.53
2022-11-24T00:36:34.904Z,99931.69
2022-11-24T00:39:06.232Z,99938.69
2022-11-24T00:41:35.873Z,99942.25
2022-11-24T00:44:04.948Z,99945.81
2022-11-24T00:46:33.833Z,99946.78
2022-11-24T00:49:03.635Z,99945.19
2022-11-24T00:51:32.742Z,99954.75
2022-11-24T00:54:02.235Z,99950.28
2022-11-24T00:56:31.441Z,99947.47
2022-11-24T00:59:00.372Z,99952.47
2022-11-24T01:01:31.334Z,99960.09
2022-11-24T01:04:02.368Z,99966.03
2022-11-24T01:06:35.615Z,99972.84
2022-11-24T01:09:04.882Z,99959.66
2022-11-24T01:11:55.115Z,99963.16
2022-11-24T01:14:25.816Z,99975.25
2022-11-24T01:16:54.603Z,99977.94
2022-11-24T01:19:23.223Z,99982.31
2022-11-24T01:21:52.859Z,99980.63
2022-11-24T01:24:21.567Z,99981.56
2022-11-24T01:26:50.063Z,99982.50
2022-11-24T01:29:18.602Z,99995.59
2022-11-24T01:31:46.904Z,99998.19
2022-11-24T01:34:15.505Z,99992.97
2022-11-24T01:36:44.016Z,99989.47
2022-11-24T01:39:14.296Z,99996.44
2022-11-24T01:41:42.978Z,100017.31
2022-11-24T01:44:26.352Z,99999.91
2022-11-24T01:46:59.760Z,100011.16
2022-11-24T01:49:39.116Z,100005.94
2022-11-24T01:52:11.925Z,100010.19
2022-11-24T01:54:45.572Z,100003.03
2022-11-24T01:57:20.809Z,100009.03
2022-11-24T01:59:52.762Z,100007.09
2022-11-24T02:02:27.248Z,100005.13
2022-11-24T02:04:56.386Z,100002.41
2022-11-24T02:07:25.076Z,100002.28
2022-11-24T02:09:58.837Z,99999.53
2022-11-24T02:12:28.682Z,100004.69
2022-11-24T02:14:57.799Z,100004.53
2022-11-24T02:17:26.141Z,100002.75
2022-11-24T02:19:58.883Z,99995.81
2022-11-24T02:22:38.133Z,99999.31
2022-11-24T02:25:18.082Z,100022.81
2022-11-24T02:27:53.513Z,100021.94
2022-11-24T02:30:22.841Z,100016.72
2022-11-24T02:32:52.550Z,100008.88
2022-11-24T02:35:21.295Z,100014.88
2022-11-24T02:37:49.850Z,100016.56
2022-11-24T02:40:24.950Z,100021.78
2022-11-24T02:42:58.964Z,100017.47
2022-11-24T02:45:28.844Z,100014.84
2022-11-24T02:47:57.556Z,100013.03
2022-11-24T02:50:26.234Z,100018.25
2022-11-24T02:52:54.809Z,100021.78
2022-11-24T02:55:23.598Z,100019.25
2022-11-24T02:57:51.999Z,100036.78
2022-11-24T03:00:22.270Z,100034.16
2022-11-24T03:02:51.149Z,100038.53
2022-11-24T03:05:20.160Z,100047.22
2022-11-24T03:07:49.155Z,100045.38
2022-11-24T03:10:18.355Z,100038.38
2022-11-24T03:12:47.038Z,100048.69
2022-11-24T03:15:15.720Z,100049.47
2022-11-24T03:17:45.371Z,100045.91
2022-11-24T03:20:14.067Z,100051.03
2022-11-24T03:22:42.621Z,100050.06
2022-11-24T03:25:11.400Z,100049.09
2022-11-24T03:27:39.982Z,100048.00
2022-11-24T03:30:09.779Z,100034.78
2022-11-24T03:32:38.389Z,100034.69
2022-11-24T03:35:09.025Z,100037.13
2022-11-24T03:37:37.591Z,100022.13
2022-11-24T03:40:07.419Z,100033.31
2022-11-24T03:42:36.021Z,100037.44
2022-11-24T03:45:30.006Z,100034.66
2022-11-24T03:47:53.347Z,100036.34
2022-11-24T03:50:22.974Z,100035.47
2022-11-24T03:52:51.488Z,100041.66
2022-11-24T03:55:20.126Z,100046.91
2022-11-24T03:57:48.846Z,100052.97
2022-11-24T04:00:18.693Z,100044.19
2022-11-24T04:02:48.157Z,100055.53
2022-11-24T04:05:17.123Z,100065.91
2022-11-24T04:07:46.770Z,100062.44
2022-11-24T04:10:15.407Z,100058.94
2022-11-24T04:12:45.816Z,100057.16
2022-11-24T04:15:17.479Z,100059.72
2022-11-24T04:17:46.921Z,100064.03
2022-11-24T04:20:16.516Z,100066.59
2022-11-24T04:22:46.422Z,100061.47
2022-11-24T04:25:17.331Z,100068.41
2022-11-24T04:27:45.854Z,100071.97
2022-11-24T04:30:14.388Z,100084.22
2022-11-24T04:32:42.733Z,100080.84
2022-11-24T04:35:11.458Z,100089.59
2022-11-24T04:37:40.136Z,100089.50
2022-11-24T04:40:12.285Z,100101.69
2022-11-24T04:42:40.861Z,100089.41
2022-11-24T04:45:10.509Z,100095.56
2022-11-24T04:47:40.124Z,100094.75
2022-11-24T04:50:10.563Z,100098.28
2022-11-24T04:52:39.278Z,100096.50
2022-11-24T04:55:10.657Z,100096.53
2022-11-24T04:57:39.581Z,100102.69
2022-11-24T05:00:11.340Z,100104.38
2022-11-24T05:02:39.988Z,100100.81
2022-11-24T05:05:09.724Z,100102.59
2022-11-24T05:07:38.429Z,100099.97
2022-11-24T05:10:27.326Z,100120.91
2022-11-24T05:12:57.114Z,100117.47
2022-11-24T05:15:25.844Z,100116.63
2022-11-24T05:17:54.498Z,100121.00
2022-11-24T05:20:23.251Z,100116.63
2022-11-24T05:22:51.938Z,100120.09
2022-11-24T05:25:21.588Z,100129.69
2022-11-24T05:27:50.121Z,100119.19
2022-11-24T05:30:18.384Z,100128.66
2022-11-24T05:32:46.564Z,100128.66
2022-11-24T05:35:15.439Z,100119.91
2022-11-24T05:37:44.033Z,100131.22
2022-11-24T05:40:12.803Z,100143.44
2022-11-24T05:42:47.133Z,100139.97
2022-11-24T05:45:18.626Z,100138.22
2022-11-24T05:47:47.165Z,100140.06
2022-11-24T05:50:17.996Z,100145.28
2022-11-24T05:52:46.742Z,100134.81
2022-11-24T05:55:16.090Z,100143.47
2022-11-24T05:57:45.750Z,100147.81
2022-11-24T06:00:17.899Z,100148.69
2022-11-24T06:02:46.276Z,100144.38
2022-11-24T06:05:14.919Z,100154.88
2022-11-24T06:07:43.592Z,100142.69
2022-11-24T06:10:12.353Z,100144.47
2022-11-24T06:12:40.959Z,100147.00
2022-11-24T06:15:12.246Z,100154.00
2022-11-24T06:17:41.399Z,100157.47
2022-11-24T06:20:11.507Z,100158.28
2022-11-24T06:22:39.789Z,100160.91
2022-11-24T06:25:09.376Z,100162.59
2022-11-24T06:27:37.951Z,100171.38
2022-11-24T06:30:07.584Z,100179.22
2022-11-24T06:32:37.218Z,100168.84
2022-11-24T06:35:06.491Z,100176.69
2022-11-24T06:37:37.610Z,100177.53
2022-11-24T06:40:09.158Z,100176.69
2022-11-24T06:42:38.251Z,100181.91
2022-11-24T06:45:09.541Z,100181.03
2022-11-24T06:47:39.436Z,100175.84
2022-11-24T06:50:10.500Z,100188.94
2022-11-24T06:52:39.106Z,100188.94
2022-11-24T06:55:08.931Z,100194.25
2022-11-24T06:57:37.478Z,100203.00
2022-11-24T07:00:08.025Z,100204.81
2022-11-24T07:02:38.794Z,100211.88
2022-11-24T07:05:11.236Z,100210.19
2022-11-24T07:07:39.773Z,100205.88
2022-11-24T07:10:09.329Z,100211.16
2022-11-24T07:12:37.631Z,100218.22
2022-11-24T07:15:07.521Z,100220.91
2022-11-24T07:17:37.710Z,100225.28
2022-11-24T07:20:07.894Z,100243.59
2022-11-24T07:22:37.471Z,100234.00
2022-11-24T07:25:09.679Z,100229.63
2022-11-24T07:27:38.330Z,100236.66
2022-11-24T07:30:08.277Z,100246.28
2022-11-24T07:32:36.856Z,100245.38
2022-11-24T07:35:05.993Z,100245.47
2022-11-24T07:37:34.530Z,100245.47
2022-11-24T07:40:04.466Z,100240.22
2022-11-24T07:42:32.703Z,100254.22
2022-11-24T07:45:00.907Z,100266.38
2022-11-24T07:47:29.651Z,100255.91
2022-11-24T07:49:58.190Z,100272.44
2022-11-24T07:52:26.751Z,100268.06
2022-11-24T07:54:55.343Z,100267.22
2022-11-24T07:57:24.933Z,100275.13
2022-11-24T07:59:53.410Z,100268.19
2022-11-24T08:02:22.262Z,100283.97
2022-11-24T08:04:50.817Z,100279.81
2022-11-24T08:07:19.418Z,100282.59
2022-11-24T08:09:48.308Z,100289.72
2022-11-24T08:12:17.437Z,100303.81
2022-11-24T08:14:46.994Z,100302.13
2022-11-24T08:17:15.605Z,100302.91
2022-11-24T08:19:44.147Z,100310.53
2022-11-24T08:22:12.572Z,100311.00
2022-11-24T08:24:46.282Z,100312.38
2022-11-24T08:27:15.654Z,100317.25
2022-11-24T08:29:44.013Z,100320.22
2022-11-24T08:32:20.435Z,100316.22
2022-11-24T08:34:52.097Z,100318.50
2022-11-24T08:37:21.108Z,100309.72
2022-11-24T08:39:49.599Z,100322.06
2022-11-24T08:42:18.179Z,100326.47
2022-11-24T08:44:46.488Z,100334.47
2022-11-24T08:47:16.111Z,100339.88
2022-11-24T08:49:44.305Z,100337.34
2022-11-24T08:52:12.815Z,100333.69
2022-11-24T08:54:44.255Z,100334.56
2022-11-24T08:57:20.195Z,100337.09
2022-11-24T08:59:50.199Z,100328.63
2022-11-24T09:02:19.855Z,100334.44
2022-11-24T09:04:48.417Z,100336.31
2022-11-24T09:07:16.715Z,100340.66
2022-11-24T09:09:45.039Z,100326.38
2022-11-24T09:12:14.725Z,100333.94
2022-11-24T09:14:43.510Z,100336.47
2022-11-24T09:17:11.832Z,100344.59
2022-11-24T09:19:41.439Z,100340.44
2022-11-24T09:22:09.984Z,100352.94
2022-11-24T09:24:38.184Z,100347.00
2022-11-24T09:27:06.374Z,100361.72
2022-11-24T09:29:34.741Z,100364.75
2022-11-24T09:32:06.684Z,100356.16
2022-11-24T09:34:35.734Z,100369.69
2022-11-24T09:37:05.366Z,100366.00
2022-11-24T09:39:34.208Z,100383.03
2022-11-24T09:42:15.784Z,100385.47
2022-11-24T09:45:13.810Z,100381.88
2022-11-24T09:47:57.079Z,100399.91
2022-11-24T09:50:28.734Z,100407.31
2022-11-24T09:53:04.591Z,100393.66
2022-11-24T09:55:41.647Z,100394.03
2022-11-24T09:58:36.655Z,100401.09
2022-11-24T10:01:13.240Z,100386.91
2022-11-24T10:03:44.579Z,100397.66
2022-11-24T10:06:24.668Z,100393.56
2022-11-24T10:09:13.098Z,100408.84
2022-11-24T10:11:52.888Z,100392.81
2022-11-24T10:14:55.119Z,100413.44
2022-11-24T10:17:43.407Z,100404.31
2022-11-24T10:20:20.194Z,100396.19
2022-11-24T10:23:02.988Z,100404.84
2022-11-24T10:25:47.482Z,100415.41
2022-11-24T10:28:17.508Z,100410.78
2022-11-24T10:30:46.121Z,100401.59
2022-11-24T10:33:23.182Z,100412.00
2022-11-24T10:35:59.687Z,100408.19
2022-11-24T10:38:43.220Z,100417.03
2022-11-24T10:41:19.395Z,100415.16
2022-11-24T10:43:48.006Z,100413.03
2022-11-24T10:46:23.320Z,100415.78
2022-11-24T10:48:57.267Z,100418.78
2022-11-24T10:52:01.335Z,100415.34
2022-11-24T10:54:30.084Z,100425.16
2022-11-24T10:56:59.641Z,100425.59
2022-11-24T10:59:38.481Z,100413.56
2022-11-24T11:02:34.815Z,100420.38
2022-11-24T11:05:42.167Z,100436.53
2022-11-24T11:08:24.719Z,100434.81
2022-11-24T11:11:23.725Z,100437.47
2022-11-24T11:14:03.824Z,100425.03
2022-11-24T11:16:38.222Z,100423.94
2022-11-24T11:19:48.424Z,100435.13
2022-11-24T11:22:25.257Z,100435.31
2022-11-24T11:25:08.794Z,100433.81
2022-11-24T11:27:37.935Z,100441.47
2022-11-24T11:36:14.604Z,100442.53
2022-11-24T11:38:44.703Z,100446.09
2022-11-24T11:41:20.811Z,100449.53
2022-11-24T11:43:57.618Z,100448.97
2022-11-24T11:46:31.768Z,100447.50
2022-11-24T11:49:00.607Z,100456.78
2022-11-24T11:51:53.730Z,100467.38
2022-11-24T11:54:35.315Z,100460.47
2022-11-24T11:57:11.620Z,100460.81
2022-11-24T12:00:15.345Z,100462.06
2022-11-24T12:03:20.536Z,100454.06
2022-11-24T12:06:00.253Z,100455.66
2022-11-24T12:09:11.681Z,100460.69
2022-11-24T12:11:38.511Z,100456.16
2022-11-24T12:14:24.940Z,100464.06
2022-11-24T12:17:02.636Z,100464.00
2022-11-24T12:19:59.379Z,100469.28
2022-11-24T12:22:43.744Z,100481.75
2022-11-24T12:25:27.890Z,100473.28
2022-11-24T12:28:17.564Z,100478.00
2022-11-24T12:30:59.957Z,100473.81
2022-11-24T12:34:01.402Z,100479.53
2022-11-24T12:36:53.240Z,100476.16
2022-11-24T12:39:30.479Z,100491.19
2022-11-24T12:42:12.516Z,100489.56
2022-11-24T12:45:24.174Z,100493.34
2022-11-24T12:48:23.911Z,100491.88
2022-11-24T12:50:55.775Z,100492.72
2022-11-24T12:53:29.091Z,100495.47
2022-11-24T12:56:08.503Z,100494.66
2022-11-24T12:58:45.612Z,100502.53
2022-11-24T13:01:26.425Z,100492.13
2022-11-24T13:04:11.187Z,100490.31
2022-11-24T13:06:51.434Z,100491.91
2022-11-24T13:09:21.551Z,100497.09
2022-11-24T13:11:51.198Z,100482.91
2022-11-24T13:14:22.974Z,100490.50
2022-11-24T13:19:43.497Z,100490.84
2022-11-24T13:22:19.209Z,100503.63
2022-11-24T13:25:17.752Z,100499.59
2022-11-24T13:27:50.673Z,100501.00
2022-11-24T13:31:08.340Z,100499.88
2022-11-24T13:33:40.604Z,100503.91
2022-11-24T13:36:51.539Z,100502.53
2022-11-24T13:39:22.523Z,100505.47
2022-11-24T13:42:44.028Z,100503.16
2022-11-24T13:45:02.125Z,100487.00
2022-11-24T13:47:41.088Z,100506.25
2022-11-24T13:50:22.240Z,100497.13
2022-11-24T13:53:00.047Z,100500.78
2022-11-24T13:55:36.360Z,100496.47
2022-11-24T13:58:28.688Z,100506.78
2022-11-24T14:01:15.565Z,100505.22
2022-11-24T14:04:28.727Z,100506.19
2022-11-24T14:06:49.292Z,100525.00
2022-11-24T14:09:28.262Z,100505.84
2022-11-24T14:12:12.629Z,100512.84
2022-11-24T14:14:42.484Z,100497.00
2022-11-24T14:17:20.757Z,100497.41
2022-11-24T14:19:51.073Z,100506.63
2022-11-24T14:22:22.802Z,100499.34
2022-11-24T14:24:57.527Z,100497.09
2022-11-24T14:27:31.376Z,100503.59
2022-11-24T14:30:03.704Z,100501.13
2022-11-24T14:32:32.472Z,100504.03
2022-11-24T14:35:01.304Z,100507.50
2022-11-24T14:37:29.914Z,100511.94
2022-11-24T14:39:58.452Z,100504.31
2022-11-24T14:42:28.317Z,100505.69
2022-11-24T14:44:59.838Z,100512.44
2022-11-24T14:47:33.132Z,100515.75
2022-11-24T14:50:13.680Z,100500.88
2022-11-24T14:52:50.789Z,100508.63
2022-11-24T14:55:29.397Z,100515.44
2022-11-24T14:57:58.636Z,100518.78
2022-11-24T15:00:31.041Z,100522.06
2022-11-24T15:03:18.259Z,100532.38
2022-11-24T15:05:56.138Z,100535.53
2022-11-24T15:08:26.195Z,100535.19
2022-11-24T15:11:00.092Z,100533.88
2022-11-24T15:13:29.913Z,100538.66
2022-11-24T15:16:03.592Z,100543.38
2022-11-24T15:18:42.375Z,100542.00
2022-11-24T15:21:18.662Z,100545.78
2022-11-24T15:24:15.562Z,100540.09
2022-11-24T15:26:44.793Z,100544.75
2022-11-24T15:29:14.158Z,100539.75
2022-11-24T15:31:47.878Z,100544.38
2022-11-24T15:34:22.225Z,100539.41
2022-11-24T15:36:50.848Z,100544.91
2022-11-24T15:39:19.357Z,100542.56
2022-11-24T15:41:47.957Z,100545.41
2022-11-24T15:44:16.419Z,100545.63
2022-11-24T15:46:45.033Z,100541.47
2022-11-24T15:49:13.639Z,100550.38
2022-11-24T15:51:47.099Z,100551.44
2022-11-24T15:54:18.703Z,100550.75
2022-11-24T15:56:47.490Z,100552.66
2022-11-24T15:59:20.775Z,100552.78
2022-11-24T16:01:50.821Z,100560.84
2022-11-24T16:04:19.540Z,100562.75
2022-11-24T16:06:49.132Z,100565.44
2022-11-24T16:09:18.192Z,100569.09
2022-11-24T16:11:46.730Z,100577.94
2022-11-24T16:14:15.523Z,100578.06
2022-11-24T16:16:44.029Z,100587.78
2022-11-24T16:19:12.845Z,100577.41
2022-11-24T16:21:41.327Z,100587.13
2022-11-24T16:24:11.171Z,100587.19
2022-11-24T16:26:39.678Z,100592.47
2022-11-24T16:29:08.256Z,100583.81
2022-11-24T16:31:37.037Z,100581.28
2022-11-24T16:34:05.313Z,100587.47
2022-11-24T16:36:33.814Z,100586.69
2022-11-24T16:39:02.416Z,100593.72
2022-11-24T16:41:31.988Z,100587.69
2022-11-24T16:44:00.470Z,100585.16
2022-11-24T16:46:29.048Z,100582.59
2022-11-24T16:49:01.309Z,100578.28
2022-11-24T16:51:34.606Z,100586.16
2022-11-24T16:54:06.064Z,100593.16
2022-11-24T16:56:35.782Z,100589.72
2022-11-24T16:59:04.477Z,100584.56
2022-11-24T17:01:33.772Z,100584.63
2022-11-24T17:04:02.372Z,100581.19
2022-11-24T17:06:32.744Z,100586.50
2022-11-24T17:09:01.877Z,100590.06
2022-11-24T17:11:30.723Z,100592.78
2022-11-24T17:14:00.286Z,100600.69
2022-11-24T17:16:29.425Z,100600.72
2022-11-24T17:18:58.671Z,100588.56
2022-11-24T17:21:28.478Z,100596.38
2022-11-24T17:23:57.963Z,100596.38
2022-11-24T17:26:26.864Z,100601.56
2022-11-24T17:28:55.879Z,100595.50
2022-11-24T17:31:28.255Z,100592.88
2022-11-24T17:33:58.653Z,100597.28
2022-11-24T17:36:28.137Z,100600.81
2022-11-24T17:38:56.430Z,100600.91
2022-11-24T17:41:24.946Z,100606.19
2022-11-24T17:43:55.714Z,100605.41
2022-11-24T17:46:26.188Z,100608.13
2022-11-24T17:48:55.487Z,100608.16
2022-11-24T17:51:26.508Z,100608.22
2022-11-24T17:53:57.240Z,100610.91
2022-11-24T17:56:27.415Z,100615.28
2022-11-24T17:58:57.605Z,100610.94
2022-11-24T18:01:28.508Z,100615.31
2022-11-24T18:03:57.385Z,100618.81
2022-11-24T18:06:25.797Z,100618.00
2022-11-24T18:08:54.952Z,100625.88
2022-11-24T18:11:30.586Z,100618.94
2022-11-24T18:14:02.939Z,100620.75
2022-11-24T18:16:35.408Z,100626.03
2022-11-24T18:19:10.702Z,100627.81
2022-11-24T18:21:41.012Z,100623.50
2022-11-24T18:24:10.080Z,100620.94
2022-11-24T18:26:38.661Z,100615.75
2022-11-24T18:29:07.862Z,100614.03
2022-11-24T18:31:37.928Z,100622.75
2022-11-24T18:34:07.198Z,100619.28
2022-11-24T18:36:36.094Z,100616.66
2022-11-24T18:39:05.944Z,100624.50
2022-11-24T18:41:34.504Z,100622.78
2022-11-24T18:44:07.487Z,100621.03
2022-11-24T18:46:37.905Z,100621.06
2022-11-24T18:49:07.146Z,100623.69
2022-11-24T18:51:35.957Z,100621.97
2022-11-24T18:54:05.401Z,100625.50
2022-11-24T18:56:34.262Z,100617.72
2022-11-24T18:59:02.546Z,100617.75
2022-11-24T19:01:32.136Z,100612.56
2022-11-24T19:04:03.529Z,100609.09
2022-11-24T19:06:34.326Z,100603.91
2022-11-24T19:09:06.610Z,100603.94
2022-11-24T19:11:37.711Z,100594.41
2022-11-24T19:14:08.661Z,100595.34
2022-11-24T19:16:37.909Z,100596.22
2022-11-24T19:19:08.667Z,100602.31
2022-11-24T19:21:38.953Z,100596.28
2022-11-24T19:24:10.614Z,100602.38
2022-11-24T19:26:39.728Z,100596.34
2022-11-24T19:29:09.160Z,100595.50
2022-11-24T19:31:39.369Z,100600.69
2022-11-24T19:34:09.065Z,100592.03
2022-11-24T19:36:37.794Z,100599.88
2022-11-24T19:39:06.368Z,100604.22
2022-11-24T19:41:35.392Z,100594.66
2022-11-24T19:44:03.918Z,100599.91
2022-11-24T19:46:33.591Z,100602.50
2022-11-24T19:49:03.875Z,100605.13
2022-11-24T19:51:35.711Z,100602.50
2022-11-24T19:54:05.774Z,100600.75
2022-11-24T19:56:36.952Z,100602.47
2022-11-24T19:59:06.875Z,100596.41
2022-11-24T20:01:38.493Z,100596.38
2022-11-24T20:04:09.465Z,100597.22
2022-11-24T20:06:41.751Z,100595.47
2022-11-24T20:09:12.584Z,100600.63
2022-11-24T20:11:41.612Z,100598.03
2022-11-24T20:14:13.879Z,100592.84
2022-11-24T20:16:43.323Z,100598.97
2022-11-24T20:19:14.113Z,100597.22
2022-11-24T20:21:46.358Z,100600.69
2022-11-24T20:24:16.974Z,100604.22
2022-11-24T20:26:48.084Z,100610.31
2022-11-24T20:29:17.415Z,100616.41
2022-11-24T20:31:48.657Z,100616.44
2022-11-24T20:34:17.929Z,100620.81
2022-11-24T20:36:48.712Z,100612.16
2022-11-24T20:39:19.860Z,100614.81
2022-11-24T20:41:48.574Z,100619.22
2022-11-24T20:44:21.360Z,100616.69
2022-11-24T20:46:50.438Z,100606.31
2022-11-24T20:49:21.823Z,100608.06
2022-11-24T20:51:54.477Z,100609.84
2022-11-24T20:54:23.118Z,100615.09
2022-11-24T20:56:51.471Z,100613.41
2022-11-24T20:59:23.183Z,100616.91
2022-11-24T21:01:55.092Z,100620.41
2022-11-24T21:04:27.068Z,100622.16
2022-11-24T21:06:56.711Z,100622.19
2022-11-24T21:09:27.134Z,100630.03
2022-11-24T21:11:55.668Z,100613.56
2022-11-24T21:14:24.665Z,100621.38
2022-11-24T21:16:53.325Z,100623.16
2022-11-24T21:19:21.837Z,100627.50
2022-11-24T21:21:50.375Z,100618.81
2022-11-24T21:24:22.433Z,100624.91
2022-11-24T21:26:52.552Z,100624.03
2022-11-24T21:29:23.439Z,100631.00
2022-11-24T21:31:52.293Z,100618.00
2022-11-24T21:34:21.056Z,100622.34
2022-11-24T21:36:50.216Z,100623.22
2022-11-24T21:39:19.881Z,100629.28
2022-11-24T21:41:48.841Z,100624.09
2022-11-24T21:44:17.189Z,100625.84
2022-11-24T21:46:51.085Z,100625.84
2022-11-24T21:49:24.241Z,100624.09
2022-11-24T21:51:55.573Z,100629.28
2022-11-24T21:54:25.564Z,100629.28
2022-11-24T21:56:55.377Z,100631.06
2022-11-24T21:59:23.858Z,100629.31
2022-11-24T22:01:52.146Z,100624.13
2022-11-24T22:04:20.415Z,100635.41
2022-11-24T22:06:48.981Z,100629.31
2022-11-24T22:09:18.480Z,100630.19
2022-11-24T22:11:49.541Z,100625.91
2022-11-24T22:14:18.163Z,100619.81
2022-11-24T22:16:47.090Z,100618.94
2022-11-24T22:19:15.786Z,100623.28
2022-11-24T22:21:44.294Z,100629.38
2022-11-24T22:24:12.845Z,100625.91
2022-11-24T22:26:41.070Z,100626.78
2022-11-24T22:29:10.854Z,100622.47
2022-11-24T22:31:39.438Z,100620.69
2022-11-24T22:34:07.855Z,100618.13
2022-11-24T22:36:37.601Z,100627.69
2022-11-24T22:39:07.247Z,100624.22
2022-11-24T22:41:36.784Z,100617.31
2022-11-24T22:44:05.829Z,100613.81
2022-11-24T22:46:35.404Z,100615.56
2022-11-24T22:49:04.344Z,100617.31
2022-11-24T22:51:35.065Z,100618.16
2022-11-24T22:54:05.518Z,100621.66
2022-11-24T22:56:34.560Z,100625.13
2022-11-24T22:59:04.517Z,100625.97
2022-11-24T23:01:35.081Z,100621.66
2022-11-24T23:04:04.399Z,100632.94
2022-11-24T23:06:34.300Z,100638.16
2022-11-24T23:09:04.484Z,100639.88
2022-11-24T23:11:38.205Z,100638.13
2022-11-24T23:14:08.713Z,100632.97
2022-11-24T23:16:38.317Z,100630.38
2022-11-24T23:19:07.082Z,100630.34
2022-11-24T23:21:38.224Z,100636.44
2022-11-24T23:24:08.819Z,100638.16
2022-11-24T23:26:39.820Z,100635.59
2022-11-24T23:29:09.216Z,100638.16
2022-11-24T23:31:40.068Z,100636.44
2022-11-24T23:34:09.080Z,100632.97
2022-11-24T23:36:37.574Z,100634.72
2022-11-24T23:39:08.638Z,100632.13
2022-11-24T23:41:37.057Z,100622.59
2022-11-24T23:44:05.854Z,100626.06
2022-11-24T23:46:34.875Z,100622.63
2022-11-24T23:49:04.593Z,100620.88
2022-11-24T23:51:34.763Z,100607.00
2022-11-24T23:54:03.619Z,100600.09
2022-11-24T23:56:33.667Z,100600.09
2022-11-24T23:59:03.750Z,100601.81
